Latest Weather Observations for PORTABLE QFRI (Inglewood)

IDQ60801

Issued at 5:52 am EST Monday 27 June 2022 (issued every 10 minutes, with the page automatically refreshed every 10 minutes)

About weather observations | Map of weather stations | Latest weather observations for QLD | Other Formats
Station Details ID: 250073 Name: INGLEWOOD (QFRI) Lat: -28.42 Lon: 151.10 Height: 286.0 m

Portable automatic weather stations (PAWS) are operated by other organisations, such as Fire and Emergency Services, and are included here by agreement. Portable stations may be deployed to a location for a short period and their location may be subject to change without notice. Wind observations from these stations are provided from heights of either three (3) or ten (10) metres above ground level (AGL).

Data from the previous 72 hours. | See also: Recent months for locations in Queensland
Date/Time
EST
Temp
°C
App
Temp
°C
Dew
Point
°C
Rel
Hum
%
Delta-T
°C
Wind Press
QNH
hPa
Press
MSL
hPa
Rain since
9am
mm
Dir  Spd
km/h
Gust
km/h
Spd
kts
Gust
kts
27/05:40am 1.8 -1.3 0.1 88 0.6 N 6 7 3 4 - - 0.0
27/05:30am 2.1 -0.6 0.5 89 0.6 NE 4 7 2 4 - - 0.0
27/05:20am 2.3 0.4 0.6 88 0.6 CALM 0 0 0 0 - - 0.0
27/05:10am 2.3 0.4 0.6 88 0.6 CALM 0 0 0 0 - - 0.0
27/05:00am 2.4 0.1 0.7 88 0.7 E 2 4 1 2 - - 0.0
27/04:50am 2.6 0.4 0.9 88 0.7 ESE 2 4 1 2 - - 0.0
27/04:40am 2.4 0.1 0.7 88 0.7 S 2 6 1 3 - - 0.0
27/04:30am 2.4 -0.3 0.6 88 0.7 S 4 6 2 3 - - 0.0
27/04:20am 2.6 0.4 0.8 88 0.7 SE 2 4 1 2 - - 0.0
27/04:10am 2.7 0.5 0.9 88 0.7 E 2 4 1 2 - - 0.0
27/04:00am 2.5 0.6 0.7 88 0.7 CALM 0 0 0 0 - - 0.0
27/03:50am 2.5 -0.1 0.7 88 0.7 N 4 6 2 3 - - 0.0
27/03:40am 2.7 0.5 1.0 88 0.7 N 2 4 1 2 - - 0.0
27/03:30am 2.6 0.4 0.9 88 0.7 N 2 4 1 2 - - 0.0
27/03:20am 2.6 0.4 0.8 88 0.7 N 2 4 1 2 - - 0.0
27/03:10am 2.3 -0.7 0.5 88 0.7 N 6 7 3 4 - - 0.0
27/03:00am 2.4 -0.6 0.5 87 0.7 N 6 7 3 4 - - 0.0
27/02:50am 2.6 0.4 0.8 88 0.7 N 2 2 1 1 - - 0.0
27/02:40am 2.6 0.7 0.8 88 0.7 CALM 0 2 0 1 - - 0.0
27/02:30am 2.4 0.1 0.6 88 0.7 NW 2 2 1 1 - - 0.0
27/02:20am 2.4 -0.3 0.5 87 0.7 N 4 4 2 2 - - 0.0
27/02:10am 2.5 0.6 0.6 87 0.7 CALM 0 4 0 2 - - 0.0
27/02:00am 2.4 0.5 0.5 87 0.7 CALM 0 0 0 0 - - 0.0
27/01:50am 2.5 0.6 0.5 87 0.8 CALM 0 0 0 0 - - 0.0
27/01:40am 2.5 0.2 0.5 87 0.8 E 2 4 1 2 - - 0.0
27/01:30am 2.7 0.8 0.6 86 0.8 CALM 0 0 0 0 - - 0.0
27/01:20am 3.1 1.3 1.0 86 0.8 CALM 0 0 0 0 - - 0.0
27/01:10am 3.6 1.9 1.6 87 0.8 CALM 0 0 0 0 - - 0.0
27/01:00am 3.7 1.6 1.6 86 0.8 S 2 4 1 2 - - 0.0
27/12:50am 3.8 1.3 1.6 85 0.9 SE 4 4 2 2 - - 0.0
27/12:40am 4.0 1.1 1.7 85 0.9 E 6 7 3 4 - - 0.0
27/12:30am 4.1 1.3 1.9 85 0.9 E 6 7 3 4 - - 0.0
27/12:20am 3.9 1.4 1.4 84 1.0 ESE 4 6 2 3 - - 0.0
27/12:10am 4.3 1.9 1.9 84 1.0 ENE 4 6 2 3 - - 0.0
27/12:00am 4.2 1.4 1.9 85 0.9 E 6 6 3 3 - - 0.0
 
Date/Time
EST
Temp
°C
App
Temp
°C
Dew
Point
°C
Rel
Hum
%
Delta-T
°C
Wind Press
QNH
hPa
Press
MSL
hPa
Rain since
9am
mm
Dir  Spd
km/h
Gust
km/h
Spd
kts
Gust
kts
26/11:50pm 4.0 1.5 1.3 82 1.1 ENE 4 6 2 3 - - 0.0
26/11:40pm 4.2 1.7 1.5 82 1.1 ENE 4 6 2 3 - - 0.0
26/11:30pm 4.3 2.1 1.1 80 1.3 ENE 2 4 1 2 - - 0.0
26/11:20pm 4.6 2.5 1.5 80 1.2 NE 2 4 1 2 - - 0.0
26/11:10pm 4.7 2.2 1.4 79 1.3 NE 4 4 2 2 - - 0.0
26/11:00pm 4.6 2.1 1.8 82 1.1 NE 4 6 2 3 - - 0.0
26/10:50pm 4.5 2.4 1.5 81 1.2 ENE 2 4 1 2 - - 0.0
26/10:40pm 4.6 2.1 1.4 80 1.3 NE 4 4 2 2 - - 0.0
26/10:30pm 4.9 3.1 1.4 78 1.4 CALM 0 0 0 0 - - 0.0
26/10:20pm 5.0 3.3 1.7 79 1.3 CALM 0 0 0 0 - - 0.0
26/10:10pm 5.1 3.4 1.8 79 1.3 CALM 0 0 0 0 - - 0.0
26/10:00pm 5.3 3.6 1.8 78 1.4 CALM 0 0 0 0 - - 0.0
26/09:50pm 5.5 3.8 2.0 78 1.4 CALM 0 0 0 0 - - 0.0
26/09:40pm 5.7 4.0 2.0 77 1.5 CALM 0 0 0 0 - - 0.0
26/09:30pm 5.9 4.3 2.5 79 1.4 CALM 0 0 0 0 - - 0.0
26/09:20pm 5.8 3.4 2.0 76 1.6 ENE 4 6 2 3 - - 0.0
26/09:10pm 5.6 3.5 1.8 76 1.6 NE 2 4 1 2 - - 0.0
26/09:00pm 6.3 4.7 2.4 76 1.6 CALM 0 0 0 0 - - 0.0
26/08:50pm 6.4 4.8 2.7 77 1.6 CALM 0 0 0 0 - - 0.0
26/08:40pm 6.6 5.1 3.0 78 1.5 CALM 0 0 0 0 - - 0.0
26/08:30pm 6.8 5.3 3.0 77 1.6 CALM 0 2 0 1 - - 0.0
26/08:20pm 6.8 4.6 3.1 77 1.6 E 4 4 2 2 - - 0.0
26/08:10pm 7.1 5.2 2.8 74 1.8 ESE 2 6 1 3 - - 0.0
26/08:00pm 7.5 6.0 3.2 74 1.8 CALM 0 2 0 1 - - 0.0
26/07:50pm 7.7 5.9 3.2 73 1.9 SW 2 4 1 2 - - 0.0
26/07:40pm 7.8 6.2 2.7 70 2.2 CALM 0 0 0 0 - - 0.0
26/07:30pm 8.3 6.8 2.8 68 2.4 CALM 0 2 0 1 - - 0.0
26/07:20pm 9.2 7.3 2.8 64 2.8 NW 2 4 1 2 - - 0.0
26/07:10pm 9.5 7.6 2.8 63 2.9 NW 2 4 1 2 - - 0.0
26/07:00pm 9.5 7.9 2.7 62 2.9 CALM 0 2 0 1 - - 0.0
26/06:50pm 9.5 8.0 3.1 64 2.8 CALM 0 0 0 0 - - 0.0
26/06:40pm 10.1 8.6 2.9 61 3.2 CALM 0 0 0 0 - - 0.0
26/06:30pm 10.6 9.1 3.1 60 3.3 CALM 0 2 0 1 - - 0.0
26/06:20pm 11.7 10.2 2.9 55 3.9 CALM 0 0 0 0 - - 0.0
26/06:10pm 11.7 10.1 2.5 53 4.0 CALM 0 2 0 1 - - 0.0
26/06:00pm 11.9 10.1 3.3 55 3.9 SE 2 6 1 3 - - 0.0
26/05:50pm 12.5 9.9 3.3 53 4.1 SW 6 6 3 3 - - 0.0
26/05:40pm 13.5 11.3 3.5 51 4.6 SW 4 6 2 3 - - 0.0
26/05:20pm 14.9 12.9 4.3 49 5.0 SW 4 4 2 2 - - 0.0
26/05:10pm 15.4 13.4 2.3 41 5.9 SW 2 4 1 2 - - 0.0
26/05:00pm 15.8 13.5 2.9 42 5.9 S 4 4 2 2 - - 0.0
26/04:50pm 16.6 13.8 2.2 38 6.6 SW 6 6 3 3 - - 0.0
26/04:40pm 17.4 14.5 1.6 34 7.2 WSW 6 6 3 3 - - 0.0
26/04:30pm 17.8 15.0 1.9 34 7.3 SW 6 7 3 4 - - 0.0
26/04:20pm 18.3 15.3 1.8 33 7.6 SSW 7 7 4 4 - - 0.0
26/04:10pm 18.8 15.3 1.4 31 7.9 S 9 11 5 6 - - 0.0
26/04:00pm 19.2 15.7 1.2 30 8.2 SSW 9 11 5 6 - - 0.0
26/03:50pm 19.4 16.0 1.6 30 8.2 SSW 9 13 5 7 - - 0.0
26/03:40pm 19.5 16.0 1.4 30 8.3 S 9 13 5 7 - - 0.0
26/03:30pm 19.7 16.2 1.2 29 8.5 SW 9 13 5 7 - - 0.0
26/03:20pm 19.7 15.8 1.4 29 8.4 SW 11 17 6 9 - - 0.0
26/03:10pm 19.9 16.1 1.6 29 8.5 SW 11 15 6 8 - - 0.0
26/03:00pm 19.8 16.0 2.0 30 8.3 S 11 15 6 8 - - 0.0
26/02:50pm 19.9 16.1 1.7 29 8.4 SSW 11 15 6 8 - - 0.0
26/02:40pm 20.1 16.0 2.0 30 8.5 SSW 13 15 7 8 - - 0.0
26/02:30pm 20.3 16.6 2.4 30 8.4 SW 11 13 6 7 - - 0.0
26/02:20pm 20.3 17.0 2.6 31 8.4 SW 9 13 5 7 - - 0.0
26/02:10pm 20.1 17.3 2.9 32 8.2 SW 7 13 4 7 - - 0.0
26/02:00pm 20.2 17.4 3.3 32 8.1 S 7 13 4 7 - - 0.0
26/01:50pm 20.2 17.4 3.4 33 8.1 SW 7 13 4 7 - - 0.0
26/01:30pm 19.8 17.6 3.3 33 7.9 S 4 7 2 4 - - 0.0
26/01:20pm 19.9 16.8 3.5 33 7.9 SW 9 15 5 8 - - 0.0
26/01:10pm 20.3 18.1 3.5 33 8.1 ENE 4 7 2 4 - - 0.0
26/01:00pm 20.4 18.3 3.7 33 8.1 NE 4 6 2 3 - - 0.0
26/12:50pm 20.2 18.4 3.4 33 8.1 SW 2 7 1 4 - - 0.0
26/12:40pm 20.0 17.7 3.0 32 8.1 W 4 7 2 4 - - 0.0
26/12:30pm 19.3 16.7 3.0 34 7.7 WSW 6 7 3 4 - - 0.0
26/12:20pm 19.1 16.8 2.9 34 7.6 WSW 4 9 2 5 - - 0.0
26/12:10pm 18.8 16.6 3.1 35 7.4 SW 4 9 2 5 - - 0.0
26/12:00pm 18.6 15.7 2.7 34 7.4 SSW 7 11 4 6 - - 0.0
26/11:50am 19.0 16.8 3.1 34 7.5 WSW 4 9 2 5 - - 0.0
26/11:40am 18.9 17.1 3.4 35 7.4 S 2 6 1 3 - - 0.0
26/11:30am 18.6 17.2 3.4 36 7.2 CALM 0 2 0 1 - - 0.0
26/11:20am 17.9 16.1 3.4 38 6.8 ENE 2 4 1 2 - - 0.0
26/11:10am 17.2 15.0 3.4 39 6.5 NE 4 6 2 3 - - 0.0
26/11:00am 16.6 14.6 4.2 43 5.9 ENE 4 6 2 3 - - 0.0
26/10:50am 15.7 13.7 4.2 46 5.4 ENE 4 6 2 3 - - 0.0
26/10:40am 15.3 13.2 4.1 47 5.3 NE 4 6 2 3 - - 0.0
26/10:30am 14.4 12.7 4.2 50 4.8 ENE 2 6 1 3 - - 0.0
26/10:20am 13.3 11.2 4.1 53 4.3 ENE 4 6 2 3 - - 0.0
26/10:10am 12.3 10.2 4.0 57 3.8 ENE 4 6 2 3 - - 0.0
26/10:00am 11.4 9.3 3.8 59 3.4 ENE 4 6 2 3 - - 0.0
26/09:50am 10.6 8.0 3.2 60 3.3 NE 6 6 3 3 - - 0.0
26/09:40am 9.3 6.7 3.2 65 2.7 ENE 6 7 3 4 - - 0.0
26/09:30am 8.8 6.2 3.0 67 2.5 ENE 6 7 3 4 - - 0.0
26/09:20am 8.3 6.0 2.8 68 2.4 ENE 4 6 2 3 - - 0.0
26/09:10am 7.7 5.4 2.5 69 2.2 NE 4 6 2 3 - - 0.0
26/09:00am 6.9 4.5 2.4 73 1.9 NNE 4 6 2 3 - - 0.0
26/08:50am 6.1 3.7 2.3 76 1.6 NE 4 6 2 3 - - 0.0
26/08:40am 5.3 3.3 2.1 80 1.3 NE 2 6 1 3 - - 0.0
26/08:30am 4.4 2.7 1.8 83 1.0 CALM 0 0 0 0 - - 0.0
26/08:20am 3.5 1.3 1.1 84 0.9 NNE 2 2 1 1 - - 0.0
26/08:10am 2.5 0.6 0.7 88 0.7 CALM 0 2 0 1 - - 0.0
26/08:00am 1.5 -0.9 0.0 90 0.6 NNE 2 4 1 2 - - 0.0
26/07:50am 0.7 -1.8 -0.8 90 0.5 N 2 4 1 2 - - 0.0
26/07:40am 0.0 -2.6 -1.6 89 0.6 N 2 4 1 2 - - 0.0
26/07:30am -0.8 -3.9 -2.4 89 0.5 N 4 6 2 3 - - 0.0
26/07:20am -1.2 -3.9 -2.8 89 0.5 N 2 4 1 2 - - 0.0
26/07:10am -1.1 -3.8 -2.8 88 0.5 N 2 2 1 1 - - 0.0
26/07:00am -1.0 -3.7 -2.7 88 0.5 NNE 2 4 1 2 - - 0.0
26/06:50am -0.9 -4.0 -2.6 88 0.5 NNE 4 4 2 2 - - 0.0
26/06:40am -0.8 -3.5 -2.4 89 0.5 NNE 2 4 1 2 - - 0.0
26/06:30am -0.4 -3.0 -2.0 89 0.5 ENE 2 4 1 2 - - 0.0
26/06:20am -0.2 -2.8 -1.7 90 0.5 E 2 4 1 2 - - 0.0
26/06:10am -0.2 -3.2 -1.7 90 0.5 E 4 4 2 2 - - 0.0
26/06:00am -0.6 -3.3 -2.2 89 0.5 NE 2 4 1 2 - - 0.0
26/05:50am -0.7 -3.4 -2.4 88 0.6 NE 2 4 1 2 - - 0.0
26/05:40am -0.7 -3.4 -2.4 88 0.6 NNE 2 4 1 2 - - 0.0
26/05:30am -0.6 -3.3 -2.3 88 0.6 NE 2 4 1 2 - - 0.0
26/05:20am -0.4 -3.0 -2.0 89 0.5 NE 2 4 1 2 - - 0.0
26/05:10am -0.2 -2.8 -1.9 88 0.6 NE 2 4 1 2 - - 0.0
26/05:00am -0.3 -3.3 -1.9 89 0.5 NE 4 4 2 2 - - 0.0
26/04:50am -1.0 -3.7 -2.7 88 0.5 NE 2 4 1 2 - - 0.0
26/04:40am -0.8 -3.9 -2.4 89 0.5 NE 4 6 2 3 - - 0.0
26/04:30am -0.8 -3.5 -2.4 89 0.5 NE 2 4 1 2 - - 0.0
26/04:20am -0.5 -3.2 -2.2 88 0.6 NNE 2 4 1 2 - - 0.0
26/04:10am -0.1 -3.1 -1.7 89 0.6 N 4 6 2 3 - - 0.0
26/04:00am -0.2 -3.2 -1.8 89 0.6 N 4 4 2 2 - - 0.0
26/03:50am -0.2 -3.2 -1.9 88 0.6 N 4 6 2 3 - - 0.0
26/03:40am -0.2 -2.8 -1.8 89 0.6 N 2 6 1 3 - - 0.0
26/03:30am 0.0 -2.2 -1.7 88 0.6 CALM 0 0 0 0 - - 0.0
26/03:20am 0.2 -2.0 -1.5 88 0.6 CALM 0 4 0 2 - - 0.0
26/03:10am 0.2 -2.0 -1.4 89 0.6 CALM 0 0 0 0 - - 0.0
26/03:00am 0.2 -2.8 -1.5 88 0.6 NNE 4 4 2 2 - - 0.0
26/02:50am 0.5 -2.8 -1.2 88 0.6 N 6 6 3 3 - - 0.0
26/02:40am 0.7 -1.8 -0.9 89 0.6 NNE 2 4 1 2 - - 0.0
26/02:30am 0.9 -1.2 -0.7 89 0.6 CALM 0 2 0 1 - - 0.0
26/02:20am 1.3 -1.9 -0.3 89 0.6 ENE 6 6 3 3 - - 0.0
26/02:10am 1.2 -2.0 -0.4 89 0.6 E 6 6 3 3 - - 0.0
26/02:00am 1.5 -1.6 -0.1 89 0.6 E 6 6 3 3 - - 0.0
26/01:50am 1.5 -1.6 -0.1 89 0.6 E 6 6 3 3 - - 0.0
26/01:40am 1.5 -1.6 -0.1 89 0.6 ENE 6 7 3 4 - - 0.0
26/01:30am 1.6 -1.5 0.0 89 0.6 E 6 7 3 4 - - 0.0
26/01:20am 1.8 -1.3 0.2 89 0.6 E 6 7 3 4 - - 0.0
26/01:10am 1.7 -1.4 0.0 88 0.6 E 6 6 3 3 - - 0.0
26/01:00am 1.8 -1.5 0.1 88 0.6 ENE 7 7 4 4 - - 0.0
26/12:50am 1.9 -1.2 0.1 88 0.7 ENE 6 6 3 3 - - 0.0
26/12:40am 1.2 -1.2 -0.6 88 0.7 ENE 2 4 1 2 - - 0.0
26/12:30am 1.7 -0.7 -0.1 88 0.7 NE 2 4 1 2 - - 0.0
26/12:20am 1.8 -0.9 0.0 88 0.7 NE 4 4 2 2 - - 0.0
26/12:10am 1.7 -1.1 -0.2 87 0.7 NE 4 4 2 2 - - 0.0
26/12:00am 2.1 -0.6 0.3 88 0.7 NNE 4 4 2 2 - - 0.0
 
Date/Time
EST
Temp
°C
App
Temp
°C
Dew
Point
°C
Rel
Hum
%
Delta-T
°C
Wind Press
QNH
hPa
Press
MSL
hPa
Rain since
9am
mm
Dir  Spd
km/h
Gust
km/h
Spd
kts
Gust
kts
25/11:50pm 2.5 -0.1 0.7 88 0.7 N 4 4 2 2 - - 0.0
25/11:40pm 2.5 -0.2 0.6 87 0.7 N 4 6 2 3 - - 0.0
25/11:30pm 2.8 0.2 0.9 87 0.7 N 4 4 2 2 - - 0.0
25/11:20pm 2.6 0.3 0.6 87 0.8 NE 2 4 1 2 - - 0.0
25/11:10pm 2.4 0.5 0.3 86 0.8 CALM 0 0 0 0 - - 0.0
25/11:00pm 2.2 -0.2 0.0 85 0.8 ENE 2 4 1 2 - - 0.0
25/10:50pm 2.6 0.3 0.4 85 0.8 NE 2 4 1 2 - - 0.0
25/10:40pm 3.2 0.6 1.0 85 0.9 NE 4 6 2 3 - - 0.0
25/10:30pm 3.1 0.1 0.9 85 0.9 N 6 6 3 3 - - 0.0
25/10:20pm 3.3 0.7 1.1 85 0.9 N 4 6 2 3 - - 0.0
25/10:10pm 3.6 1.0 1.2 84 0.9 N 4 6 2 3 - - 0.0
25/10:00pm 4.2 2.1 1.8 84 1.0 NE 2 4 1 2 - - 0.0
25/09:50pm 4.6 3.0 2.3 85 0.9 CALM 0 4 0 2 - - 0.0
25/09:40pm 4.6 3.0 2.2 84 1.0 CALM 0 2 0 1 - - 0.0
25/09:30pm 4.7 2.3 2.4 85 0.9 ENE 4 4 2 2 - - 0.0
25/09:20pm 4.2 1.3 1.7 84 1.0 ENE 6 6 3 3 - - 0.0
25/09:10pm 4.2 1.3 1.6 83 1.0 E 6 6 3 3 - - 0.0
25/09:00pm 5.2 2.5 2.9 85 1.0 ENE 6 6 3 3 - - 0.0
25/08:50pm 5.5 3.6 3.1 84 1.0 E 2 6 1 3 - - 0.0
25/08:40pm 5.7 3.9 3.2 84 1.1 ESE 2 6 1 3 - - 0.0
25/08:30pm 5.9 4.0 3.0 82 1.2 SE 2 6 1 3 - - 0.0
25/08:20pm 6.2 4.4 3.2 81 1.3 E 2 4 1 2 - - 0.0
25/08:10pm 6.0 3.7 2.8 80 1.3 ESE 4 6 2 3 - - 0.0
25/08:00pm 6.5 4.2 2.5 75 1.7 E 4 6 2 3 - - 0.0
25/07:50pm 6.9 5.0 2.8 75 1.7 E 2 2 1 1 - - 0.0
25/07:40pm 7.1 5.5 2.5 72 1.9 CALM 0 0 0 0 - - 0.0
25/07:30pm 7.3 5.0 3.0 74 1.8 NE 4 4 2 2 - - 0.0
25/07:20pm 8.0 6.2 3.2 72 2.1 N 2 4 1 2 - - 0.0
25/07:10pm 8.5 6.7 3.7 72 2.1 N 2 6 1 3 - - 0.0
25/07:00pm 9.0 7.6 3.8 70 2.3 CALM 0 2 0 1 - - 0.0
25/06:50pm 9.5 7.4 3.7 67 2.6 NW 4 6 2 3 - - 0.0
25/06:40pm 9.9 7.8 3.9 66 2.7 NNW 4 6 2 3 - - 0.0
25/06:30pm 10.5 8.7 3.5 62 3.1 N 2 6 1 3 - - 0.0
25/06:20pm 10.9 9.1 3.5 60 3.3 NNE 2 4 1 2 - - 0.0
25/06:10pm 11.2 9.9 4.1 61 3.2 CALM 0 0 0 0 - - 0.0
25/06:00pm 11.8 10.5 4.1 59 3.5 CALM 0 2 0 1 - - 0.0
25/05:50pm 12.5 10.8 4.2 57 3.8 E 2 4 1 2 - - 0.0
25/05:40pm 13.6 11.5 3.8 51 4.5 SE 4 6 2 3 - - 0.0
25/05:30pm 14.2 12.1 3.7 49 4.8 SSE 4 6 2 3 - - 0.0
25/05:20pm 15.0 13.8 4.6 49 4.9 CALM 0 0 0 0 - - 0.0
25/05:10pm 16.1 14.7 3.4 42 5.9 CALM 0 2 0 1 - - 0.0
25/05:00pm 17.0 14.7 2.8 38 6.6 W 4 4 2 2 - - 0.0
25/04:50pm 17.5 15.2 2.8 37 6.8 W 4 6 2 3 - - 0.0
25/04:40pm 18.1 15.4 2.7 35 7.2 W 6 6 3 3 - - 0.0
25/04:30pm 18.7 16.0 2.6 34 7.5 W 6 6 3 3 - - 0.0
25/04:20pm 18.9 16.0 2.5 33 7.7 WNW 7 7 4 4 - - 0.0
25/04:10pm 19.0 16.3 2.4 33 7.7 W 6 7 3 4 - - 0.0
25/04:00pm 18.9 15.6 2.4 33 7.7 WSW 9 9 5 5 - - 0.0
25/03:50pm 19.1 16.2 2.7 33 7.7 WSW 7 7 4 4 - - 0.0
25/03:40pm 19.2 16.3 2.8 33 7.7 WSW 7 9 4 5 - - 0.0
25/03:30pm 19.4 17.2 3.1 34 7.7 SSW 4 9 2 5 - - 0.0
25/03:20pm 19.4 16.7 2.6 32 7.9 W 6 9 3 5 - - 0.0
25/03:10pm 19.3 16.4 2.6 33 7.8 WSW 7 11 4 6 - - 0.0
25/03:00pm 19.4 16.1 2.3 32 8.0 SW 9 11 5 6 - - 0.0
25/02:50pm 19.4 16.5 2.5 32 7.9 W 7 11 4 6 - - 0.0
25/02:40pm 19.2 16.3 2.4 32 7.9 SW 7 11 4 6 - - 0.0
25/02:30pm 19.0 15.7 2.3 33 7.8 SSW 9 15 5 8 - - 0.0
25/02:20pm 19.0 14.9 2.2 32 7.8 SW 13 17 7 9 - - 0.0
25/02:10pm 19.1 15.7 2.1 32 7.9 SW 9 11 5 6 - - 0.0
25/02:00pm 19.0 15.3 2.3 33 7.8 SSW 11 15 6 8 - - 0.0
25/01:50pm 19.0 15.3 2.2 32 7.8 WSW 11 17 6 9 - - 0.0
25/01:40pm 18.7 15.7 2.2 33 7.7 SSW 7 11 4 6 - - 0.0
25/01:30pm 18.5 14.7 2.0 33 7.6 WSW 11 17 6 9 - - 0.0
25/01:20pm 18.4 14.3 2.4 34 7.4 WSW 13 17 7 9 - - 0.0
25/01:10pm 18.3 14.2 2.4 34 7.4 SSW 13 17 7 9 - - 0.0
25/01:00pm 18.4 14.7 2.6 35 7.4 SSW 11 15 6 8 - - 0.0
25/12:50pm 18.2 14.6 2.7 35 7.2 SW 11 13 6 7 - - 0.0
25/12:40pm 18.1 13.7 2.6 35 7.2 SSW 15 17 8 9 - - 0.0
25/12:30pm 18.0 13.6 2.6 35 7.2 SSW 15 20 8 11 - - 0.0
25/12:20pm 18.0 14.3 2.3 35 7.3 SSW 11 15 6 8 - - 0.0
25/12:10pm 17.9 14.2 2.5 35 7.1 SSW 11 13 6 7 - - 0.0
25/12:00pm 17.6 13.1 2.4 36 7.0 SSW 15 19 8 10 - - 0.0
25/11:50am 17.6 13.1 2.4 36 7.0 SW 15 22 8 12 - - 0.0
25/11:40am 17.6 14.3 2.2 35 7.1 SSW 9 19 5 10 - - 0.0
25/11:30am 17.2 13.9 2.5 37 6.8 SSW 9 13 5 7 - - 0.0
25/11:20am 16.7 13.5 3.1 40 6.3 S 9 13 5 7 - - 0.0
25/11:10am 16.3 13.2 3.8 43 5.9 S 9 13 5 7 - - 0.0
25/11:00am 15.9 13.9 4.6 47 5.4 S 4 7 2 4 - - 0.0
25/10:50am 15.4 13.4 4.4 48 5.2 SSE 4 7 2 4 - - 0.0
25/10:40am 14.5 12.1 4.1 49 4.9 S 6 11 3 6 - - 0.0
25/10:30am 14.1 12.0 3.9 50 4.7 SE 4 11 2 6 - - 0.0
25/10:20am 13.0 11.4 4.4 56 4.0 S 2 4 1 2 - - 0.0
25/10:10am 12.2 10.6 4.3 58 3.6 S 2 6 1 3 - - 0.0
25/10:00am 11.4 9.8 4.5 62 3.2 ESE 2 6 1 3 - - 0.0
25/09:50am 10.2 8.1 4.1 66 2.7 ENE 4 4 2 2 - - 0.0
25/09:40am 9.6 7.9 3.8 67 2.6 E 2 6 1 3 - - 0.0
25/09:30am 8.8 7.4 3.4 69 2.4 CALM 0 2 0 1 - - 0.0
25/09:20am 7.9 6.0 2.9 70 2.1 ENE 2 4 1 2 - - 0.0
25/09:10am 7.1 5.6 2.8 74 1.8 CALM 0 2 0 1 - - 0.0
25/09:00am 6.4 4.3 2.0 73 1.8 N 2 4 1 2 - - 0.0
25/08:50am 5.5 3.4 1.4 75 1.7 NNW 2 4 1 2 - - 0.0
25/08:40am 4.9 2.7 1.3 77 1.4 N 2 4 1 2 - - 0.0
25/08:30am 4.1 1.8 0.7 78 1.3 N 2 4 1 2 - - 0.0
25/08:20am 3.3 1.0 0.3 81 1.1 NNE 2 4 1 2 - - 0.0
25/08:10am 2.4 0.4 -0.1 83 0.9 CALM 0 2 0 1 - - 0.0
25/08:00am 1.5 -0.6 -0.5 86 0.7 CALM 0 2 0 1 - - 0.0
25/07:50am 0.9 -1.6 -0.9 88 0.6 E 2 4 1 2 - - 0.0
25/07:40am 0.0 -2.6 -1.7 88 0.6 ESE 2 4 1 2 - - 0.0
25/07:30am -0.7 -4.2 -2.5 88 0.6 E 6 6 3 3 - - 0.0
25/07:20am -1.3 -4.8 -3.1 87 0.5 E 6 6 3 3 - - 0.0
25/07:10am -1.3 -4.5 -3.1 87 0.5 NE 4 4 2 2 - - 0.0
25/07:00am -1.3 -4.1 -3.1 87 0.5 ENE 2 4 1 2 - - 0.0
25/06:50am -1.3 -3.7 -3.1 87 0.5 CALM 0 2 0 1 - - 0.0
25/06:40am -1.1 -4.2 -2.9 87 0.6 NNE 4 6 2 3 - - 0.0
25/06:30am -1.3 -4.5 -3.1 87 0.5 NE 4 4 2 2 - - 0.0
25/06:20am -1.5 -4.3 -3.3 87 0.5 NE 2 2 1 1 - - 0.0
25/06:10am -1.1 -3.8 -2.8 88 0.5 NE 2 4 1 2 - - 0.0
25/06:00am -1.2 -4.3 -3.0 87 0.6 NNE 4 4 2 2 - - 0.0
25/05:50am -1.3 -4.1 -3.0 88 0.5 NE 2 4 1 2 - - 0.0
25/05:40am -1.1 -3.5 -2.8 88 0.5 CALM 0 0 0 0 - - 0.0
25/05:30am -0.8 -3.5 -2.6 88 0.6 ENE 2 2 1 1 - - 0.0
25/05:20am -0.7 -3.4 -2.5 88 0.6 NE 2 2 1 1 - - 0.0
25/05:10am -0.8 -3.1 -2.6 88 0.6 CALM 0 4 0 2 - - 0.0
25/05:00am -0.6 -3.3 -2.4 88 0.6 NE 2 4 1 2 - - 0.0
25/04:50am -0.5 -3.2 -2.2 88 0.6 NE 2 4 1 2 - - 0.0
25/04:40am -0.6 -3.3 -2.4 88 0.6 NE 2 4 1 2 - - 0.0
25/04:30am -0.7 -3.4 -2.5 88 0.6 NE 2 2 1 1 - - 0.0
25/04:20am -0.9 -3.3 -2.8 87 0.6 CALM 0 2 0 1 - - 0.0
25/04:10am -1.0 -3.4 -2.8 88 0.6 CALM 0 4 0 2 - - 0.0
25/04:00am -0.8 -3.5 -2.6 88 0.6 NNE 2 4 1 2 - - 0.0
25/03:50am -0.6 -2.9 -2.5 87 0.6 CALM 0 0 0 0 - - 0.0
25/03:40am -0.6 -3.3 -2.5 87 0.6 NNE 2 4 1 2 - - 0.0
25/03:30am -0.4 -2.7 -2.3 87 0.6 CALM 0 2 0 1 - - 0.0
25/03:20am -0.1 -2.4 -2.0 87 0.7 CALM 0 2 0 1 - - 0.0
25/03:10am -0.2 -2.9 -2.1 87 0.7 NE 2 4 1 2 - - 0.0
25/03:00am 0.2 -2.4 -1.8 86 0.7 ENE 2 4 1 2 - - 0.0
25/02:50am 0.4 -2.2 -1.5 87 0.7 ENE 2 4 1 2 - - 0.0
25/02:40am 0.2 -2.0 -1.7 87 0.7 CALM 0 2 0 1 - - 0.0
25/02:30am -0.1 -2.4 -2.1 86 0.7 CALM 0 0 0 0 - - 0.0
25/02:20am 0.3 -2.3 -1.7 86 0.7 ENE 2 6 1 3 - - 0.0
25/02:10am 0.1 -2.2 -2.0 86 0.7 CALM 0 2 0 1 - - 0.0
25/02:00am 0.3 -2.3 -1.8 86 0.8 NE 2 4 1 2 - - 0.0
25/01:50am 1.1 -1.4 -0.9 86 0.7 NNE 2 4 1 2 - - 0.0
25/01:40am 0.9 -2.0 -1.2 86 0.8 N 4 6 2 3 - - 0.0
25/01:30am 0.8 -2.5 -1.3 86 0.7 N 6 6 3 3 - - 0.0
25/01:20am 1.2 -2.1 -1.0 85 0.8 N 6 6 3 3 - - 0.0
25/01:10am 1.5 -1.3 -0.7 85 0.8 NE 4 6 2 3 - - 0.0
25/01:00am 2.0 -1.3 -0.1 86 0.8 E 7 9 4 5 - - 0.0
25/12:50am 2.1 -1.0 0.0 86 0.8 ENE 6 6 3 3 - - 0.0
25/12:40am 2.0 -1.1 -0.1 86 0.8 NE 6 6 3 3 - - 0.0
25/12:30am 1.9 -1.3 -0.3 85 0.8 NE 6 6 3 3 - - 0.0
25/12:20am 2.0 -0.8 -0.3 85 0.9 NE 4 4 2 2 - - 0.0
25/12:10am 1.9 -0.9 -0.7 83 1.0 NNE 4 4 2 2 - - 0.0
25/12:00am 2.3 -0.5 -0.4 82 1.0 NE 4 4 2 2 - - 0.0
 
Date/Time
EST
Temp
°C
App
Temp
°C
Dew
Point
°C
Rel
Hum
%
Delta-T
°C
Wind Press
QNH
hPa
Press
MSL
hPa
Rain since
9am
mm
Dir  Spd
km/h
Gust
km/h
Spd
kts
Gust
kts
24/11:50pm 2.4 -0.8 -0.6 80 1.1 ENE 6 6 3 3 - - 0.0
24/11:40pm 2.9 0.2 0.0 81 1.1 ENE 4 4 2 2 - - 0.0
24/11:30pm 3.2 0.5 0.3 81 1.1 ENE 4 6 2 3 - - 0.0
24/11:20pm 3.1 0.4 0.3 82 1.1 ENE 4 6 2 3 - - 0.0
24/11:10pm 3.2 0.1 0.2 81 1.1 ENE 6 6 3 3 - - 0.0
24/11:00pm 3.4 0.4 0.7 82 1.0 ENE 6 7 3 4 - - 0.0
24/10:50pm 3.4 0.2 0.9 84 1.0 E 7 7 4 4 - - 0.0
24/10:40pm 3.5 0.5 1.1 84 0.9 E 6 7 3 4 - - 0.0
24/10:30pm 3.9 1.0 1.3 83 1.0 E 6 6 3 3 - - 0.0
24/10:20pm 4.1 1.2 1.2 81 1.1 E 6 6 3 3 - - 0.0
24/10:10pm 4.0 1.0 0.9 80 1.2 E 6 7 3 4 - - 0.0
24/10:00pm 4.1 1.1 0.7 78 1.3 E 6 6 3 3 - - 0.0
24/09:50pm 4.2 1.6 0.7 78 1.4 ENE 4 4 2 2 - - 0.0
24/09:40pm 3.9 1.6 0.1 76 1.5 ENE 2 4 1 2 - - 0.0
24/09:30pm 4.5 1.5 0.5 75 1.6 E 6 6 3 3 - - 0.0
24/09:20pm 4.6 1.6 0.8 76 1.5 E 6 6 3 3 - - 0.0
24/09:10pm 4.6 2.0 1.0 77 1.4 E 4 6 2 3 - - 0.0
24/09:00pm 4.5 2.2 0.7 76 1.5 E 2 4 1 2 - - 0.0
24/08:50pm 4.7 2.5 1.0 77 1.5 NE 2 4 1 2 - - 0.0
24/08:40pm 5.1 3.3 1.4 77 1.5 CALM 0 2 0 1 - - 0.0
24/08:30pm 5.8 3.9 2.6 80 1.3 ENE 2 4 1 2 - - 0.0
24/08:20pm 6.2 4.3 2.8 79 1.4 E 2 4 1 2 - - 0.0
24/08:10pm 6.5 4.2 2.8 77 1.6 ENE 4 4 2 2 - - 0.0
24/08:00pm 6.6 4.6 2.3 74 1.8 E 2 4 1 2 - - 0.0
24/07:50pm 7.0 5.0 2.5 73 1.9 E 2 4 1 2 - - 0.0
24/07:40pm 7.3 5.0 2.7 72 2.0 E 4 4 2 2 - - 0.0
24/07:30pm 7.3 5.6 2.1 69 2.2 CALM 0 2 0 1 - - 0.0
24/07:20pm 7.7 6.1 2.7 70 2.1 CALM 0 0 0 0 - - 0.0
24/07:10pm 8.2 6.6 2.5 67 2.4 CALM 0 0 0 0 - - 0.0
24/07:00pm 8.7 7.1 2.3 64 2.7 CALM 0 0 0 0 - - 0.0
24/06:50pm 9.4 7.8 2.7 63 2.9 CALM 0 0 0 0 - - 0.0
24/06:40pm 10.1 8.5 2.3 58 3.4 CALM 0 2 0 1 - - 0.0
24/06:30pm 10.6 8.6 2.4 57 3.6 NW 2 2 1 1 - - 0.0
24/06:20pm 11.2 9.3 2.6 55 3.8 NNW 2 4 1 2 - - 0.0
24/06:10pm 12.0 10.1 2.6 52 4.2 NNW 2 2 1 1 - - 0.0
24/06:00pm 13.0 10.9 2.0 47 4.8 NW 2 2 1 1 - - 0.0
24/05:50pm 13.7 11.2 1.7 44 5.3 W 4 4 2 2 - - 0.0
24/05:40pm 14.1 11.6 1.8 43 5.4 W 4 4 2 2 - - 0.0
24/05:30pm 14.9 12.4 1.5 40 5.9 W 4 6 2 3 - - 0.0
24/05:20pm 15.4 12.5 1.4 38 6.2 W 6 6 3 3 - - 0.0
24/05:10pm 15.7 12.8 1.5 38 6.3 W 6 6 3 3 - - 0.0
24/05:00pm 16.2 13.3 1.3 36 6.6 W 6 6 3 3 - - 0.0
24/04:50pm 16.7 13.8 1.2 35 6.9 W 6 6 3 3 - - 0.0
24/04:40pm 17.2 14.1 1.2 34 7.2 W 7 7 4 4 - - 0.0
24/04:30pm 17.7 14.2 1.1 32 7.5 W 9 13 5 7 - - 0.0
24/04:20pm 17.9 14.4 1.1 32 7.6 W 9 11 5 6 - - 0.0
24/04:10pm 18.0 14.4 0.8 31 7.7 WSW 9 11 5 6 - - 0.0
24/04:00pm 18.1 13.8 1.0 31 7.7 WSW 13 13 7 7 - - 0.0
24/03:50pm 18.3 14.3 0.7 30 7.9 W 11 15 6 8 - - 0.0
24/03:40pm 18.3 14.8 1.1 31 7.8 WSW 9 11 5 6 - - 0.0
24/03:30pm 18.3 14.3 0.4 30 8.0 WSW 11 15 6 8 - - 0.0
24/03:20pm 18.4 13.7 0.6 30 8.0 WSW 15 19 8 10 - - 0.0
24/03:10pm 18.6 13.4 0.3 29 8.2 WSW 17 22 9 12 - - 0.0
24/03:00pm 19.5 15.2 -1.4 24 9.1 WSW 11 19 6 10 - - 0.0
24/02:50pm 18.5 13.2 -0.8 27 8.4 WSW 17 19 9 10 - - 0.0
24/02:40pm 18.7 13.4 -0.6 27 8.5 SW 17 19 9 10 - - 0.0
24/02:30pm 18.5 13.1 -1.3 26 8.5 WSW 17 22 9 12 - - 0.0
24/02:20pm 18.5 13.2 -0.9 27 8.4 SW 17 22 9 12 - - 0.0
24/02:10pm 18.6 13.3 -0.3 28 8.3 SW 17 19 9 10 - - 0.0
24/02:00pm 18.7 13.3 -1.4 25 8.7 SW 17 20 9 11 - - 0.0
24/01:50pm 18.4 13.2 0.1 29 8.1 WSW 17 22 9 12 - - 0.0
24/01:40pm 18.5 13.3 0.1 29 8.2 WSW 17 20 9 11 - - 0.0
24/01:30pm 18.5 13.3 0.2 29 8.1 WSW 17 20 9 11 - - 0.0
24/01:20pm 18.4 14.5 1.2 31 7.8 WSW 11 13 6 7 - - 0.0
24/01:10pm 18.1 14.7 1.8 33 7.5 SSW 9 11 5 6 - - 0.0
24/01:00pm 17.9 14.9 2.0 34 7.3 WSW 7 15 4 8 - - 0.0
24/12:50pm 17.7 14.4 2.4 36 7.1 SW 9 13 5 7 - - 0.0
24/12:40pm 17.4 13.7 2.1 36 7.0 SW 11 15 6 8 - - 0.0
24/12:30pm 17.6 14.6 2.2 35 7.1 SW 7 13 4 7 - - 0.0
24/12:20pm 17.1 13.8 2.6 38 6.7 WSW 9 13 5 7 - - 0.0
24/12:10pm 17.0 13.3 2.2 37 6.8 SSW 11 15 6 8 - - 0.0
24/12:00pm 16.9 13.1 2.0 36 6.8 SSW 11 15 6 8 - - 0.0
24/11:50am 16.7 13.9 3.3 40 6.3 SSW 7 13 4 7 - - 0.0
24/11:40am 16.5 13.3 3.2 41 6.2 SW 9 11 5 6 - - 0.0
24/11:30am 16.2 13.6 3.1 41 6.1 WSW 6 9 3 5 - - 0.0
24/11:20am 15.9 13.4 3.7 44 5.7 SSW 6 7 3 4 - - 0.0
24/11:10am 15.6 13.5 4.0 46 5.4 SSW 4 7 2 4 - - 0.0
24/11:00am 15.1 13.0 3.8 46 5.3 SE 4 7 2 4 - - 0.0
24/10:50am 14.9 13.2 4.0 48 5.1 ENE 2 6 1 3 - - 0.0
24/10:40am 14.4 12.5 3.1 46 5.2 ESE 2 4 1 2 - - 0.0
24/10:30am 13.9 12.3 2.7 46 5.0 CALM 0 4 0 2 - - 0.0
24/10:20am 13.0 11.1 2.7 49 4.6 E 2 2 1 1 - - 0.0
24/10:10am 12.4 10.5 3.1 53 4.2 NE 2 4 1 2 - - 0.0
24/10:00am 11.7 10.2 2.8 54 3.9 CALM 0 4 0 2 - - 0.0
24/09:50am 10.7 8.8 2.8 58 3.5 ENE 2 4 1 2 - - 0.0
24/09:40am 10.0 8.1 3.0 62 3.1 NNE 2 4 1 2 - - 0.0
24/09:30am 8.9 7.0 3.1 67 2.5 ENE 2 2 1 1 - - 0.0
24/09:20am 7.8 5.9 2.9 71 2.1 ENE 2 2 1 1 - - 0.0
24/09:10am 6.8 4.8 2.2 72 1.9 ENE 2 4 1 2 - - 0.0
24/09:00am 6.0 3.9 1.8 74 1.7 NE 2 4 1 2 - - 0.0
24/08:50am 5.0 2.4 1.2 76 1.5 E 4 4 2 2 - - 0.0
24/08:40am 4.4 1.8 0.8 77 1.4 E 4 4 2 2 - - 0.0
24/08:30am 3.9 1.6 0.7 80 1.2 ENE 2 4 1 2 - - 0.0
24/08:20am 2.8 0.8 0.2 83 1.0 CALM 0 2 0 1 - - 0.0
24/08:10am 1.9 -0.5 -0.1 87 0.7 NNE 2 2 1 1 - - 0.0
24/08:00am 1.0 -1.5 -0.7 88 0.6 NNE 2 4 1 2 - - 0.0
24/07:50am 0.4 -1.8 -1.2 89 0.6 CALM 0 2 0 1 - - 0.0
24/07:40am -0.2 -2.8 -1.8 89 0.6 NE 2 4 1 2 - - 0.0
24/07:30am -0.8 -3.1 -2.4 89 0.5 CALM 0 0 0 0 - - 0.0
24/07:20am -1.3 -4.1 -2.9 89 0.5 ENE 2 4 1 2 - - 0.0
24/07:10am -1.6 -4.0 -3.2 89 0.5 CALM 0 2 0 1 - - 0.0
24/07:00am -1.8 -4.2 -3.4 89 0.4 CALM 0 0 0 0 - - 0.0
24/06:50am -1.7 -4.1 -3.4 88 0.5 CALM 0 0 0 0 - - 0.0
24/06:40am -1.6 -4.0 -3.3 88 0.5 CALM 0 0 0 0 - - 0.0
24/06:30am -1.6 -4.4 -3.3 88 0.5 N 2 4 1 2 - - 0.0
24/06:20am -1.5 -4.7 -3.3 87 0.5 N 4 4 2 2 - - 0.0
24/06:10am -1.4 -3.8 -3.1 88 0.5 CALM 0 2 0 1 - - 0.0
24/06:00am -1.3 -4.1 -3.0 88 0.5 N 2 2 1 1 - - 0.0

Other formats

Comma delimited format used in spreadsheet applications
http://www.bom.gov.au/fwo/IDQ60801/IDQ60801.99122.axf

JavaScript Object Notation format (JSON) in row-major order
http://www.bom.gov.au/fwo/IDQ60801/IDQ60801.99122.json

Data quality

Most of these data are generated automatically and are frequently updated. Quality checks on data are not normally performed. It is possible for incorrect values to appear. Refer to information at About Latest Weather Observations and please check the disclaimer before using these data.